Time;durP1;ratioP1;P1;durP2;ratioP2;P2;SDS_P1;SDS_P2;PMS_P1;PMS_P2;Temp;Humidity;BMP_temperature;BMP_pressure;BME280_temperature;BME280_humidity;BME280_pressure;Samples;Min_cycle;Max_cycle;Signal;HPM_P1;HPM_P2
2020/12/24 00:02:04;;;;;;;1.20;0.90;;;11.40;98.00;;;;;;5034613;28;20501;-67
2020/12/24 00:04:31;;;;;;;1.20;0.90;;;11.40;98.00;;;;;;5032528;28;20486;-66
2020/12/24 00:06:57;;;;;;;1.20;0.90;;;11.30;98.00;;;;;;5034563;28;20466;-67
2020/12/24 00:09:24;;;;;;;1.30;0.97;;;11.40;98.00;;;;;;5032268;28;20471;-67
2020/12/24 00:11:50;;;;;;;1.20;0.90;;;11.30;98.00;;;;;;5034463;28;20477;-66
2020/12/24 00:14:17;;;;;;;1.20;0.90;;;11.40;98.00;;;;;;5032568;28;20461;-66
2020/12/24 00:16:43;;;;;;;1.20;0.90;;;11.30;98.00;;;;;;5034546;28;20469;-66
2020/12/24 00:19:11;;;;;;;1.20;0.97;;;11.30;98.00;;;;;;5032695;28;20531;-66
2020/12/24 00:21:38;;;;;;;1.20;1.00;;;11.20;98.00;;;;;;5034269;28;20463;-66
2020/12/24 00:24:05;;;;;;;1.20;0.90;;;11.20;98.00;;;;;;5030671;28;20481;-66
2020/12/24 00:26:31;;;;;;;1.20;1.00;;;11.10;98.00;;;;;;5032811;28;21010;-69
2020/12/24 00:28:58;;;;;;;1.20;1.00;;;11.10;98.00;;;;;;5030852;28;20507;-65
2020/12/24 00:31:25;;;;;;;1.20;0.90;;;11.10;98.00;;;;;;5033984;28;20458;-66
2020/12/24 00:33:52;;;;;;;1.20;0.90;;;11.10;98.00;;;;;;5032062;28;20473;-66
2020/12/24 00:36:19;;;;;;;1.20;1.00;;;11.10;98.00;;;;;;5034424;28;20957;-66
2020/12/24 00:38:45;;;;;;;1.20;0.90;;;11.00;98.00;;;;;;5032164;28;21121;-66
2020/12/24 00:41:12;;;;;;;1.20;1.00;;;11.00;98.00;;;;;;5034421;28;20458;-66
2020/12/24 00:43:38;;;;;;;1.20;1.00;;;11.00;98.00;;;;;;5031807;28;20490;-68
2020/12/24 00:46:05;;;;;;;1.20;1.00;;;11.00;98.00;;;;;;5033131;28;20466;-65
2020/12/24 00:48:31;;;;;;;1.20;0.93;;;11.00;98.00;;;;;;5031995;28;21175;-65
2020/12/24 00:50:58;;;;;;;1.20;0.90;;;11.00;98.00;;;;;;5033960;28;20468;-67
2020/12/24 00:53:25;;;;;;;1.20;1.00;;;11.00;98.00;;;;;;5031563;28;20453;-65
2020/12/24 00:55:52;;;;;;;1.20;1.00;;;11.00;98.00;;;;;;5033735;28;20470;-66
2020/12/24 00:58:18;;;;;;;1.20;0.90;;;11.00;98.00;;;;;;5031666;28;20466;-65
2020/12/24 01:00:45;;;;;;;1.20;0.90;;;11.00;98.00;;;;;;5033839;28;20517;-68
2020/12/24 01:03:11;;;;;;;1.20;0.97;;;10.90;98.00;;;;;;5033417;28;20509;-66
2020/12/24 01:05:38;;;;;;;1.20;1.00;;;10.90;98.00;;;;;;5032036;28;20490;-67
2020/12/24 01:08:04;;;;;;;1.20;1.00;;;10.90;98.00;;;;;;5033732;28;20458;-66
2020/12/24 01:10:32;;;;;;;1.63;1.00;;;10.90;98.00;;;;;;5013420;28;20469;-68
2020/12/24 01:13:00;;;;;;;1.20;1.10;;;10.80;98.00;;;;;;5033507;28;20530;-67
2020/12/24 01:15:27;;;;;;;1.20;1.00;;;10.80;98.00;;;;;;5031136;28;20473;-66
2020/12/24 01:17:54;;;;;;;1.20;0.90;;;10.80;98.00;;;;;;5033503;28;20465;-67
2020/12/24 01:20:20;;;;;;;1.20;0.90;;;10.70;98.00;;;;;;5031054;28;20459;-67
2020/12/24 01:22:50;;;;;;;1.20;0.90;;;10.70;98.00;;;;;;5033145;28;20496;-66
2020/12/24 01:25:17;;;;;;;1.20;1.00;;;10.60;98.00;;;;;;5031074;28;20466;-67
2020/12/24 01:27:45;;;;;;;1.30;1.10;;;10.60;98.00;;;;;;5033029;28;20508;-68
2020/12/24 01:30:12;;;;;;;1.20;0.90;;;10.60;98.00;;;;;;5030601;28;20461;-67
2020/12/24 01:32:38;;;;;;;1.20;0.93;;;10.50;98.00;;;;;;5032944;28;20476;-67
2020/12/24 01:35:05;;;;;;;1.20;1.00;;;10.40;98.00;;;;;;5031016;28;20462;-65
2020/12/24 01:37:34;;;;;;;1.20;0.90;;;10.30;98.00;;;;;;5033118;28;20465;-67
2020/12/24 01:40:00;;;;;;;1.20;0.90;;;10.20;98.00;;;;;;5030629;28;20461;-67
2020/12/24 01:42:27;;;;;;;1.20;0.90;;;10.10;98.00;;;;;;5032008;28;20531;-67
2020/12/24 01:44:54;;;;;;;1.20;1.00;;;10.00;98.00;;;;;;5030951;28;20850;-66
2020/12/24 01:47:21;;;;;;;1.20;1.00;;;10.00;98.00;;;;;;5032966;28;20795;-66
2020/12/24 01:49:48;;;;;;;1.20;0.90;;;10.10;98.00;;;;;;5030951;28;20515;-67
2020/12/24 01:52:31;;;;;;;1.20;1.00;;;10.10;98.00;;;;;;5032962;28;20476;-66
2020/12/24 01:54:58;;;;;;;1.20;0.93;;;10.20;98.00;;;;;;5030840;28;20464;-66
2020/12/24 01:57:25;;;;;;;1.20;0.97;;;10.10;98.00;;;;;;5032742;28;20493;-67
2020/12/24 01:59:55;;;;;;;1.20;1.00;;;10.10;98.00;;;;;;5030768;28;20938;-69
2020/12/24 02:02:22;;;;;;;1.20;0.90;;;10.00;98.00;;;;;;5032592;28;20485;-67
2020/12/24 02:04:48;;;;;;;1.20;0.90;;;9.90;98.00;;;;;;5030571;28;20883;-65
2020/12/24 02:07:16;;;;;;;1.20;0.90;;;9.90;98.00;;;;;;5032430;28;20466;-68
2020/12/24 02:09:45;;;;;;;1.20;0.90;;;9.90;98.00;;;;;;5030445;28;20549;-66
2020/12/24 02:12:12;;;;;;;1.20;1.00;;;9.90;98.00;;;;;;5031065;28;20469;-66
2020/12/24 02:14:39;;;;;;;1.20;1.00;;;10.00;98.00;;;;;;5030244;28;20814;-68
2020/12/24 02:17:07;;;;;;;1.20;1.00;;;10.10;98.00;;;;;;5032414;28;20491;-67
2020/12/24 02:19:33;;;;;;;1.20;1.00;;;10.00;98.00;;;;;;5030179;28;20473;-68
2020/12/24 02:22:01;;;;;;;1.20;1.00;;;9.90;98.00;;;;;;5032022;28;20484;-68
2020/12/24 02:24:28;;;;;;;1.20;0.90;;;10.00;98.00;;;;;;5029823;28;20487;-68
2020/12/24 02:26:54;;;;;;;1.20;0.90;;;10.10;98.00;;;;;;5032072;28;20491;-66
2020/12/24 02:29:22;;;;;;;1.20;0.93;;;10.00;98.00;;;;;;5028772;28;20477;-65
2020/12/24 02:31:48;;;;;;;1.20;0.90;;;9.90;98.00;;;;;;5031865;28;20493;-66
2020/12/24 02:34:15;;;;;;;1.20;0.90;;;9.80;98.00;;;;;;5029955;28;20465;-66
2020/12/24 02:36:42;;;;;;;1.20;1.00;;;9.70;98.00;;;;;;5031710;28;20472;-66
2020/12/24 02:39:09;;;;;;;1.20;0.90;;;9.70;98.00;;;;;;5029592;28;20465;-65
2020/12/24 02:41:36;;;;;;;1.20;0.90;;;9.70;98.00;;;;;;5030440;28;20455;-66
2020/12/24 02:44:03;;;;;;;1.20;0.90;;;9.70;98.00;;;;;;5029831;28;20508;-66
2020/12/24 02:46:29;;;;;;;1.20;0.90;;;9.80;98.00;;;;;;5031589;28;20941;-67
2020/12/24 02:48:56;;;;;;;1.20;0.90;;;9.80;98.00;;;;;;5029769;28;20465;-66
2020/12/24 02:51:23;;;;;;;1.20;1.00;;;9.80;98.00;;;;;;5030669;28;20455;-67
2020/12/24 02:53:49;;;;;;;1.20;1.00;;;9.80;98.00;;;;;;5029696;28;20549;-67
2020/12/24 02:56:17;;;;;;;1.20;0.93;;;9.70;98.00;;;;;;5031916;28;20471;-66
2020/12/24 02:58:43;;;;;;;1.20;1.00;;;9.60;98.00;;;;;;5029588;28;20486;-66
2020/12/24 03:01:09;;;;;;;1.20;1.00;;;9.70;98.00;;;;;;5031723;28;20468;-67
2020/12/24 03:03:36;;;;;;;1.20;1.00;;;9.60;98.00;;;;;;5029647;28;20489;-66
2020/12/24 03:06:02;;;;;;;1.20;0.90;;;9.60;98.00;;;;;;5031597;28;20544;-66
2020/12/24 03:08:29;;;;;;;1.20;1.00;;;9.70;98.00;;;;;;5029645;28;20459;-66
2020/12/24 03:10:56;;;;;;;1.20;1.00;;;9.70;98.00;;;;;;5031147;28;20464;-67
2020/12/24 03:13:23;;;;;;;1.20;1.00;;;9.60;98.00;;;;;;5031636;28;20461;-66
2020/12/24 03:15:50;;;;;;;1.20;0.90;;;9.60;98.00;;;;;;5029664;28;20469;-66
2020/12/24 03:18:16;;;;;;;1.20;1.00;;;9.60;98.00;;;;;;5031454;28;20486;-67
2020/12/24 03:20:43;;;;;;;1.20;0.90;;;9.60;98.00;;;;;;5029229;28;20466;-66
2020/12/24 03:23:11;;;;;;;1.20;0.90;;;9.50;98.00;;;;;;5031190;28;20476;-66
2020/12/24 03:25:37;;;;;;;1.30;1.00;;;9.60;98.00;;;;;;5029444;28;20497;-67
2020/12/24 03:28:04;;;;;;;1.20;0.90;;;9.50;98.00;;;;;;5031268;28;20526;-66
2020/12/24 03:30:32;;;;;;;1.20;1.00;;;9.40;98.00;;;;;;5029131;28;20467;-66
2020/12/24 03:33:00;;;;;;;1.20;0.90;;;9.30;98.00;;;;;;5031184;28;20509;-67
2020/12/24 03:35:26;;;;;;;1.20;1.00;;;9.40;98.00;;;;;;5029039;28;20466;-65
2020/12/24 03:37:54;;;;;;;1.20;0.97;;;9.30;98.00;;;;;;5031260;28;20469;-68
2020/12/24 03:40:21;;;;;;;1.20;0.90;;;9.40;98.00;;;;;;5027694;28;20515;-66
2020/12/24 03:42:50;;;;;;;1.20;1.10;;;9.40;98.00;;;;;;5031170;28;20471;-67
2020/12/24 03:45:17;;;;;;;1.20;1.00;;;9.40;98.00;;;;;;5027433;28;20547;-66
2020/12/24 03:47:44;;;;;;;1.20;0.90;;;9.40;98.00;;;;;;5031089;28;20460;-67
2020/12/24 03:50:11;;;;;;;1.20;1.00;;;9.40;98.00;;;;;;5028966;28;20470;-66
2020/12/24 03:52:37;;;;;;;1.20;0.90;;;9.40;98.00;;;;;;5031081;28;20462;-66
2020/12/24 03:55:04;;;;;;;1.20;1.00;;;9.50;98.00;;;;;;5028987;28;20462;-66
2020/12/24 03:57:30;;;;;;;1.20;1.00;;;9.50;98.00;;;;;;5029911;28;20455;-68
2020/12/24 03:59:57;;;;;;;1.20;1.10;;;9.50;98.00;;;;;;5028869;28;20460;-66
2020/12/24 04:02:23;;;;;;;1.20;1.00;;;9.60;98.00;;;;;;5031099;28;20485;-66
2020/12/24 04:04:50;;;;;;;1.20;0.97;;;9.70;98.00;;;;;;5029172;28;20549;-67
2020/12/24 04:07:19;;;;;;;1.20;0.90;;;9.70;98.00;;;;;;5031280;28;20485;-66
2020/12/24 04:09:45;;;;;;;1.20;1.00;;;9.70;98.00;;;;;;5029020;28;20886;-65
2020/12/24 04:12:12;;;;;;;1.20;1.00;;;9.70;98.00;;;;;;5031162;28;20460;-66
2020/12/24 04:14:39;;;;;;;1.20;0.90;;;9.60;98.00;;;;;;5029022;28;20500;-66
2020/12/24 04:17:05;;;;;;;1.20;1.00;;;9.60;98.00;;;;;;5030949;28;20466;-66
2020/12/24 04:19:32;;;;;;;1.20;1.00;;;9.60;98.00;;;;;;5028571;28;20468;-66
2020/12/24 04:21:59;;;;;;;1.20;0.93;;;9.50;98.00;;;;;;5033140;28;21101;-66
2020/12/24 04:24:26;;;;;;;1.20;1.00;;;9.50;98.00;;;;;;5031386;28;20567;-66
2020/12/24 04:26:55;;;;;;;1.77;1.17;;;9.40;98.00;;;;;;5033566;28;20474;-67
2020/12/24 04:29:22;;;;;;;1.20;1.00;;;9.40;98.00;;;;;;5030729;28;20460;-68
2020/12/24 04:31:48;;;;;;;1.20;1.00;;;9.40;98.00;;;;;;5034202;28;20468;-67
2020/12/24 04:34:15;;;;;;;1.20;0.90;;;9.40;98.00;;;;;;5031674;28;20456;-65
2020/12/24 04:36:41;;;;;;;1.20;0.90;;;9.40;98.00;;;;;;5034016;28;20517;-66
2020/12/24 04:39:09;;;;;;;1.20;1.00;;;9.40;98.00;;;;;;5032070;28;20506;-66
2020/12/24 04:41:35;;;;;;;1.20;0.90;;;9.30;98.00;;;;;;5033810;28;20462;-66
2020/12/24 04:44:02;;;;;;;1.20;1.00;;;9.40;98.00;;;;;;5031528;28;20492;-65
2020/12/24 04:46:29;;;;;;;1.20;1.00;;;9.40;98.00;;;;;;5032313;28;20465;-68
2020/12/24 04:48:58;;;;;;;1.20;1.00;;;9.40;98.00;;;;;;5032268;28;20463;-67
2020/12/24 04:51:25;;;;;;;1.20;0.90;;;9.50;98.00;;;;;;5033762;28;20458;-66
2020/12/24 04:53:52;;;;;;;1.20;0.90;;;9.50;98.00;;;;;;5031507;28;20462;-66
2020/12/24 04:56:20;;;;;;;1.20;0.90;;;9.40;98.00;;;;;;5033650;28;20455;-65
2020/12/24 04:58:46;;;;;;;1.20;1.00;;;9.40;98.00;;;;;;5031747;28;20471;-67
2020/12/24 05:01:16;;;;;;;1.20;1.00;;;9.30;98.00;;;;;;5033732;28;20811;-65
2020/12/24 05:03:46;;;;;;;1.20;0.90;;;9.20;98.00;;;;;;5031904;28;20998;-66
2020/12/24 05:06:17;;;;;;;1.20;0.90;;;9.10;98.00;;;;;;5033408;28;20972;-67
2020/12/24 05:08:51;;;;;;;1.20;1.00;;;9.10;98.00;;;;;;5031618;28;20456;-68
2020/12/24 05:11:26;;;;;;;1.20;1.00;;;9.00;98.00;;;;;;5033460;28;20971;-65
2020/12/24 05:13:53;;;;;;;1.20;0.90;;;9.10;98.00;;;;;;5031560;28;20463;-65
2020/12/24 05:16:21;;;;;;;1.20;0.93;;;9.20;98.00;;;;;;5033628;28;20854;-66
2020/12/24 05:18:48;;;;;;;1.20;1.00;;;9.20;98.00;;;;;;5031356;28;20482;-65
2020/12/24 05:21:31;;;;;;;1.20;0.90;;;9.20;98.00;;;;;;5033476;28;20470;-66
2020/12/24 05:23:58;;;;;;;1.20;0.90;;;9.30;98.00;;;;;;5030885;28;20491;-66
2020/12/24 05:26:25;;;;;;;1.20;0.90;;;9.10;98.00;;;;;;5033286;28;20489;-65
2020/12/24 05:28:52;;;;;;;1.20;1.00;;;9.20;98.00;;;;;;5031113;28;20470;-67
2020/12/24 05:31:32;;;;;;;1.20;0.90;;;9.20;98.00;;;;;;5032879;28;20476;-67
2020/12/24 05:33:58;;;;;;;1.20;0.90;;;9.20;98.00;;;;;;5030806;28;20459;-67
2020/12/24 05:36:25;;;;;;;1.20;1.00;;;9.20;98.00;;;;;;5033182;28;20460;-69
2020/12/24 05:38:53;;;;;;;1.20;0.90;;;9.20;98.00;;;;;;5030984;28;20464;-66
2020/12/24 05:41:28;;;;;;;1.20;0.90;;;9.10;98.00;;;;;;5033002;28;20522;-67
2020/12/24 05:43:56;;;;;;;1.20;1.00;;;9.10;98.00;;;;;;5031160;28;20486;-66
2020/12/24 05:46:23;;;;;;;1.20;1.00;;;9.10;98.00;;;;;;5032970;28;20946;-65
2020/12/24 05:48:50;;;;;;;1.20;0.97;;;9.00;98.00;;;;;;5030905;28;20460;-65
2020/12/24 05:51:18;;;;;;;1.20;1.00;;;9.00;98.00;;;;;;5032789;28;20455;-66
2020/12/24 05:53:48;;;;;;;1.20;1.00;;;9.00;98.00;;;;;;5031204;28;20565;-66
2020/12/24 05:56:24;;;;;;;1.20;0.90;;;9.10;98.00;;;;;;5032708;28;20500;-65
2020/12/24 05:58:54;;;;;;;1.20;1.00;;;9.10;98.00;;;;;;5030635;28;20887;-66
2020/12/24 06:01:28;;;;;;;1.20;1.00;;;9.10;98.00;;;;;;5032593;28;20463;-67
2020/12/24 06:04:03;;;;;;;1.20;0.90;;;9.10;98.00;;;;;;5030230;28;20496;-66
2020/12/24 06:06:46;;;;;;;1.20;0.90;;;9.00;98.00;;;;;;5031255;28;20467;-67
2020/12/24 06:09:19;;;;;;;1.20;1.00;;;9.00;98.00;;;;;;5029148;28;20466;-66
2020/12/24 06:11:47;;;;;;;1.20;0.90;;;9.00;98.00;;;;;;5032378;28;20461;-65
2020/12/24 06:14:29;;;;;;;1.20;1.00;;;9.10;98.00;;;;;;5030371;28;20809;-65
2020/12/24 06:17:01;;;;;;;1.20;0.90;;;9.10;98.00;;;;;;5032217;28;20458;-66
2020/12/24 06:19:29;;;;;;;1.20;1.00;;;9.00;98.00;;;;;;5030213;28;20456;-68
2020/12/24 06:21:55;;;;;;;1.20;1.00;;;9.10;98.00;;;;;;5032042;28;20470;-66
2020/12/24 06:24:23;;;;;;;1.20;1.00;;;9.10;98.00;;;;;;5029743;28;20485;-66
2020/12/24 06:26:57;;;;;;;1.20;1.00;;;9.20;98.00;;;;;;5031979;28;20464;-67
2020/12/24 06:29:26;;;;;;;1.20;1.00;;;9.20;98.00;;;;;;5029715;28;20995;-66
2020/12/24 06:31:54;;;;;;;1.20;1.00;;;9.10;98.00;;;;;;5032059;28;20556;-67
2020/12/24 06:34:22;;;;;;;1.20;0.90;;;9.10;98.00;;;;;;5030308;28;20480;-67
2020/12/24 06:36:48;;;;;;;1.30;1.10;;;9.00;98.00;;;;;;5032192;28;20457;-65
2020/12/24 06:39:39;;;;;;;1.20;0.90;;;9.00;98.00;;;;;;5030077;28;20966;-65
2020/12/24 06:42:06;;;;;;;1.20;0.90;;;9.00;98.00;;;;;;5031759;28;20530;-66
2020/12/24 06:44:49;;;;;;;1.20;0.90;;;9.10;98.00;;;;;;5028427;28;20489;-68
2020/12/24 06:47:17;;;;;;;1.20;1.00;;;9.10;98.00;;;;;;5031723;28;20474;-65
2020/12/24 06:49:44;;;;;;;1.20;1.00;;;9.10;98.00;;;;;;5029723;28;20496;-66
2020/12/24 06:52:27;;;;;;;1.40;1.20;;;9.20;98.00;;;;;;5031860;28;20836;-66
2020/12/24 06:55:12;;;;;;;1.20;0.90;;;9.10;98.00;;;;;;5029777;28;20936;-65
2020/12/24 06:57:40;;;;;;;1.20;1.00;;;9.20;98.00;;;;;;5031635;28;20468;-65
2020/12/24 07:00:18;;;;;;;1.20;1.00;;;9.20;98.00;;;;;;5029480;28;20469;-66
2020/12/24 07:02:47;;;;;;;1.20;0.90;;;9.20;98.00;;;;;;5031542;28;20466;-66
2020/12/24 07:05:44;;;;;;;1.20;1.00;;;9.20;98.00;;;;;;5029519;28;20496;-67
2020/12/24 07:08:11;;;;;;;1.20;1.00;;;9.20;98.00;;;;;;5031529;28;20493;-66
2020/12/24 07:10:45;;;;;;;1.20;0.90;;;9.20;98.00;;;;;;5029367;28;20463;-66
2020/12/24 07:13:26;;;;;;;1.20;0.90;;;9.20;98.00;;;;;;5031420;28;20471;-66
2020/12/24 07:15:54;;;;;;;1.20;1.00;;;9.30;98.00;;;;;;5029231;28;21024;-65
2020/12/24 07:18:21;;;;;;;1.20;1.00;;;9.20;98.00;;;;;;5031422;28;20461;-68
2020/12/24 07:20:50;;;;;;;1.20;0.90;;;9.20;98.00;;;;;;5029177;28;20918;-66
2020/12/24 07:23:27;;;;;;;1.20;0.90;;;9.20;98.00;;;;;;5031126;28;20470;-66
2020/12/24 07:25:54;;;;;;;1.20;0.90;;;9.20;98.00;;;;;;5029523;28;20462;-66
2020/12/24 07:28:21;;;;;;;1.20;0.90;;;9.30;98.00;;;;;;5031335;28;20470;-69
2020/12/24 07:30:57;;;;;;;1.20;1.00;;;9.30;98.00;;;;;;5029143;28;20494;-68
2020/12/24 07:33:24;;;;;;;1.20;1.00;;;9.30;98.00;;;;;;5031257;28;20467;-66
2020/12/24 07:35:50;;;;;;;1.20;1.00;;;9.40;98.00;;;;;;5029002;28;20829;-67
2020/12/24 07:38:21;;;;;;;1.20;0.90;;;9.30;98.00;;;;;;5029983;28;20937;-65
2020/12/24 07:40:48;;;;;;;2.03;1.33;;;9.40;98.00;;;;;;5029049;28;20469;-67
2020/12/24 07:43:14;;;;;;;1.20;1.00;;;9.40;98.00;;;;;;5031243;28;20462;-67
2020/12/24 07:45:42;;;;;;;1.20;1.00;;;9.40;98.00;;;;;;5028981;28;20524;-65
2020/12/24 07:48:14;;;;;;;1.20;1.00;;;9.40;98.00;;;;;;5030983;28;20460;-66
2020/12/24 07:50:41;;;;;;;1.33;1.00;;;9.50;98.00;;;;;;5029246;28;20847;-67
2020/12/24 07:53:09;;;;;;;1.20;0.93;;;9.50;98.00;;;;;;5031304;28;20798;-66
2020/12/24 07:55:36;;;;;;;1.20;1.00;;;9.50;98.00;;;;;;5028941;28;20521;-66
2020/12/24 07:58:07;;;;;;;1.20;0.90;;;9.50;98.00;;;;;;5035248;28;20534;-65
2020/12/24 08:00:40;;;;;;;1.30;1.10;;;9.40;98.00;;;;;;5032974;28;20512;-65
2020/12/24 08:03:07;;;;;;;1.20;0.90;;;9.40;98.00;;;;;;5034862;28;20477;-66
2020/12/24 08:05:35;;;;;;;1.20;0.90;;;9.40;98.00;;;;;;5031501;28;20545;-67
2020/12/24 08:08:01;;;;;;;1.20;1.00;;;9.40;98.00;;;;;;5034905;28;20469;-66
2020/12/24 08:10:28;;;;;;;1.20;0.90;;;9.40;98.00;;;;;;5032782;28;20459;-66
2020/12/24 08:13:02;;;;;;;1.20;0.90;;;9.40;98.00;;;;;;5034693;28;20467;-66
2020/12/24 08:15:32;;;;;;;1.20;1.00;;;9.40;98.00;;;;;;5031064;28;20499;-67
2020/12/24 08:18:01;;;;;;;1.20;0.90;;;9.40;98.00;;;;;;5033961;28;20480;-67
2020/12/24 08:20:38;;;;;;;1.20;1.00;;;9.40;98.00;;;;;;5031951;28;21005;-66
2020/12/24 08:23:12;;;;;;;1.20;0.90;;;9.40;98.00;;;;;;5033834;28;20548;-66
2020/12/24 08:25:39;;;;;;;1.20;0.90;;;9.30;98.00;;;;;;5031839;28;20483;-67
2020/12/24 08:28:07;;;;;;;1.37;1.00;;;9.30;98.00;;;;;;5033657;28;20462;-68
2020/12/24 08:30:34;;;;;;;1.20;1.00;;;9.30;98.00;;;;;;5030540;28;20463;-67
2020/12/24 08:33:04;;;;;;;2.20;1.30;;;9.30;98.00;;;;;;5034215;28;20452;-68
2020/12/24 08:35:31;;;;;;;1.20;1.00;;;9.40;98.00;;;;;;5031894;28;20454;-67
2020/12/24 08:38:12;;;;;;;1.20;0.90;;;9.40;98.00;;;;;;5032864;28;20508;-67
2020/12/24 08:40:40;;;;;;;1.20;1.00;;;9.30;98.00;;;;;;5030684;28;20461;-67
2020/12/24 08:43:09;;;;;;;1.20;1.00;;;9.30;98.00;;;;;;5034068;28;20935;-66
2020/12/24 08:45:43;;;;;;;1.20;0.90;;;9.30;98.00;;;;;;5032031;28;20493;-67
2020/12/24 08:48:10;;;;;;;1.20;0.97;;;9.20;98.00;;;;;;5033252;28;20465;-67
2020/12/24 08:50:38;;;;;;;1.23;1.03;;;9.30;98.00;;;;;;5030644;28;20455;-67
2020/12/24 08:53:05;;;;;;;1.20;1.00;;;9.20;98.00;;;;;;5033583;28;20498;-67
2020/12/24 08:55:33;;;;;;;1.20;1.00;;;9.20;98.00;;;;;;5031700;28;20449;-66
2020/12/24 08:58:00;;;;;;;1.20;1.00;;;9.20;98.00;;;;;;5033566;28;20509;-66
2020/12/24 09:00:28;;;;;;;1.20;1.00;;;9.10;98.00;;;;;;5012030;28;20472;-67
2020/12/24 09:02:54;;;;;;;1.20;1.00;;;9.10;98.00;;;;;;5012533;28;20520;-67
2020/12/24 09:05:24;;;;;;;1.20;1.00;;;9.00;98.00;;;;;;5011174;28;20484;-66
2020/12/24 09:07:51;;;;;;;1.20;0.90;;;9.00;98.00;;;;;;5012828;28;20828;-66
2020/12/24 09:10:25;;;;;;;1.20;0.97;;;8.90;98.00;;;;;;5011659;28;20785;-68
2020/12/24 09:12:58;;;;;;;1.20;0.90;;;8.90;98.00;;;;;;5013907;28;20482;-67
2020/12/24 09:15:28;;;;;;;1.20;0.93;;;8.90;98.00;;;;;;5011706;28;20473;-68
2020/12/24 09:17:55;;;;;;;1.20;1.00;;;8.90;98.00;;;;;;5011620;28;20488;-67
2020/12/24 09:20:24;;;;;;;1.20;0.90;;;8.90;98.00;;;;;;5009834;28;20473;-67
2020/12/24 09:22:52;;;;;;;1.20;0.90;;;8.90;98.00;;;;;;5012460;28;20508;-68
2020/12/24 09:25:32;;;;;;;1.20;1.00;;;8.90;98.00;;;;;;5010649;28;21011;-67
2020/12/24 09:28:00;;;;;;;1.20;0.97;;;8.90;98.00;;;;;;5012938;28;20500;-66
2020/12/24 09:30:27;;;;;;;1.20;0.90;;;9.00;98.00;;;;;;5010800;28;20461;-66
2020/12/24 09:32:55;;;;;;;1.20;1.00;;;9.00;98.00;;;;;;5013017;28;20452;-67
2020/12/24 09:35:23;;;;;;;1.20;1.00;;;9.00;98.00;;;;;;5010569;28;20539;-67
2020/12/24 09:37:50;;;;;;;1.20;0.90;;;9.00;98.00;;;;;;5012736;28;20937;-68
2020/12/24 09:40:16;;;;;;;1.20;0.90;;;8.90;98.00;;;;;;5010714;28;20471;-68
2020/12/24 09:42:43;;;;;;;1.20;1.00;;;8.90;98.00;;;;;;5012714;28;20888;-69
2020/12/24 09:45:11;;;;;;;1.20;1.00;;;8.90;98.00;;;;;;5010103;28;20493;-68
2020/12/24 09:47:37;;;;;;;1.20;1.00;;;9.00;98.00;;;;;;5012696;28;20499;-67
2020/12/24 09:50:05;;;;;;;1.20;1.10;;;9.00;98.00;;;;;;5010158;28;20467;-68
2020/12/24 09:52:32;;;;;;;1.20;0.90;;;9.10;98.00;;;;;;5012602;28;20808;-68
2020/12/24 09:54:59;;;;;;;1.20;1.00;;;9.10;98.00;;;;;;5010069;28;20985;-69
2020/12/24 09:57:25;;;;;;;1.20;0.90;;;9.00;98.00;;;;;;5012212;28;20464;-68
2020/12/24 09:59:52;;;;;;;1.20;0.90;;;9.00;98.00;;;;;;5010394;28;20469;-67
2020/12/24 10:02:20;;;;;;;1.20;0.90;;;9.00;98.00;;;;;;5012201;28;20463;-68
2020/12/24 10:04:46;;;;;;;1.20;1.00;;;9.00;98.00;;;;;;5009922;28;20488;-68
2020/12/24 10:07:13;;;;;;;1.20;1.00;;;9.00;98.00;;;;;;5011933;28;20473;-69
2020/12/24 10:09:39;;;;;;;1.20;0.90;;;9.00;98.00;;;;;;5009874;28;20549;-68
2020/12/24 10:12:10;;;;;;;1.20;1.00;;;9.10;98.00;;;;;;5012016;28;20528;-69
2020/12/24 10:14:37;;;;;;;1.20;1.00;;;9.10;98.00;;;;;;5009630;28;21252;-68
2020/12/24 10:17:15;;;;;;;1.20;1.00;;;9.20;98.00;;;;;;5012208;28;20468;-67
2020/12/24 10:19:43;;;;;;;1.20;1.00;;;9.20;98.00;;;;;;5008527;28;20517;-67
2020/12/24 10:22:10;;;;;;;1.20;0.90;;;9.10;98.00;;;;;;5011882;28;20510;-67
2020/12/24 10:24:38;;;;;;;1.20;1.00;;;9.10;98.00;;;;;;5009317;28;20569;-68
2020/12/24 10:27:05;;;;;;;1.20;0.93;;;9.10;98.00;;;;;;5011868;28;20514;-66
2020/12/24 10:29:32;;;;;;;1.20;0.90;;;9.10;98.00;;;;;;5009899;28;20948;-68
2020/12/24 10:31:59;;;;;;;1.20;1.00;;;9.00;98.00;;;;;;5012018;28;20463;-66
2020/12/24 10:34:26;;;;;;;1.20;0.93;;;9.00;98.00;;;;;;5009235;28;20463;-67
2020/12/24 10:36:55;;;;;;;1.20;0.90;;;9.00;98.00;;;;;;5011907;28;20463;-68
2020/12/24 10:39:22;;;;;;;1.20;1.00;;;9.10;98.00;;;;;;5009409;28;20458;-66
2020/12/24 10:41:51;;;;;;;1.20;0.90;;;9.10;98.00;;;;;;5011788;28;20472;-67
2020/12/24 10:44:18;;;;;;;1.20;0.90;;;9.10;98.00;;;;;;5009174;28;20502;-66
2020/12/24 10:46:45;;;;;;;1.20;1.00;;;9.10;98.00;;;;;;5011414;28;20970;-67
2020/12/24 10:49:14;;;;;;;1.20;1.00;;;9.10;98.00;;;;;;5010593;28;21013;-66
2020/12/24 10:51:40;;;;;;;1.20;1.00;;;9.10;98.00;;;;;;5011268;28;21028;-67
2020/12/24 10:54:08;;;;;;;1.20;0.90;;;9.10;98.00;;;;;;5010476;28;20493;-67
2020/12/24 10:56:36;;;;;;;1.20;0.90;;;9.20;98.00;;;;;;5006923;28;20459;-67
2020/12/24 10:59:03;;;;;;;1.20;1.00;;;9.10;98.00;;;;;;4992892;28;20575;-65
2020/12/24 11:01:30;;;;;;;1.20;1.00;;;9.10;98.00;;;;;;4988923;28;20468;-67
2020/12/24 11:03:57;;;;;;;1.20;1.00;;;9.10;98.00;;;;;;4991325;28;20476;-68
2020/12/24 11:06:25;;;;;;;1.20;0.97;;;9.10;98.00;;;;;;4989104;28;20564;-65
2020/12/24 11:08:53;;;;;;;1.20;0.90;;;9.10;98.00;;;;;;4991915;28;20462;-66
2020/12/24 11:11:20;;;;;;;4.73;1.10;;;9.10;98.00;;;;;;4989125;28;20959;-66
2020/12/24 11:13:47;;;;;;;1.20;1.00;;;9.10;98.00;;;;;;4991393;28;20460;-65
2020/12/24 11:16:21;;;;;;;1.20;1.00;;;9.10;98.00;;;;;;4988676;28;20882;-66
2020/12/24 11:18:48;;;;;;;1.20;0.97;;;9.10;98.00;;;;;;4991342;28;20452;-67
2020/12/24 11:21:14;;;;;;;1.20;0.90;;;9.10;98.00;;;;;;4989555;28;20495;-65
2020/12/24 11:23:41;;;;;;;1.20;1.00;;;9.10;98.00;;;;;;4991169;28;20829;-66
2020/12/24 11:26:08;;;;;;;1.20;1.00;;;9.10;98.00;;;;;;4988489;28;20489;-65
2020/12/24 11:28:35;;;;;;;1.20;0.90;;;9.10;98.00;;;;;;4991570;28;20467;-67
2020/12/24 11:31:02;;;;;;;1.20;1.00;;;9.10;98.00;;;;;;4991306;28;20463;-65
2020/12/24 11:33:28;;;;;;;1.20;1.00;;;9.20;98.00;;;;;;4994983;28;20464;-66
2020/12/24 11:35:55;;;;;;;1.20;1.13;;;9.20;98.00;;;;;;4993004;28;20459;-65
2020/12/24 11:38:22;;;;;;;1.20;1.00;;;9.20;98.00;;;;;;4995557;28;20946;-66
2020/12/24 11:40:48;;;;;;;1.20;1.00;;;9.20;98.00;;;;;;4993337;28;20780;-65
2020/12/24 11:43:15;;;;;;;1.20;0.90;;;9.20;98.00;;;;;;4995277;28;20463;-66
2020/12/24 11:45:42;;;;;;;1.20;0.90;;;9.20;98.00;;;;;;4992713;28;20544;-65
2020/12/24 11:48:09;;;;;;;1.20;0.90;;;9.20;98.00;;;;;;4995133;28;20476;-67
2020/12/24 11:50:35;;;;;;;1.20;1.00;;;9.20;98.00;;;;;;4993016;28;20981;-66
2020/12/24 11:53:02;;;;;;;1.20;0.90;;;9.20;98.00;;;;;;4995084;28;20464;-66
2020/12/24 11:55:29;;;;;;;1.20;1.00;;;9.30;98.00;;;;;;4993118;28;20467;-66
2020/12/24 11:57:55;;;;;;;1.43;1.20;;;9.30;98.00;;;;;;4994273;28;20452;-66
2020/12/24 12:00:22;;;;;;;1.20;1.00;;;9.40;98.00;;;;;;4993092;28;20847;-65
2020/12/24 12:02:49;;;;;;;1.20;1.00;;;9.60;98.00;;;;;;4994950;28;20492;-66
2020/12/24 12:05:16;;;;;;;1.20;0.90;;;9.60;98.00;;;;;;4992470;28;20516;-65
2020/12/24 12:07:46;;;;;;;1.20;1.00;;;9.60;98.00;;;;;;4994841;28;20470;-66
2020/12/24 12:10:13;;;;;;;1.20;0.90;;;9.50;98.00;;;;;;4992806;28;20870;-66
2020/12/24 12:12:41;;;;;;;1.20;1.00;;;9.60;98.00;;;;;;4994695;28;20461;-68
2020/12/24 12:15:07;;;;;;;1.20;0.90;;;9.60;98.00;;;;;;4992399;28;20943;-66
2020/12/24 12:17:34;;;;;;;1.20;0.90;;;9.60;98.00;;;;;;4994579;28;20463;-66
2020/12/24 12:20:01;;;;;;;1.20;1.10;;;10.00;98.00;;;;;;4992821;28;20464;-66
2020/12/24 12:22:29;;;;;;;1.20;1.00;;;10.60;98.00;;;;;;4994316;28;20896;-68
2020/12/24 12:24:56;;;;;;;1.20;1.00;;;10.70;98.00;;;;;;4992210;28;20542;-66
2020/12/24 12:27:22;;;;;;;1.20;0.90;;;10.40;98.00;;;;;;4994577;28;20466;-66
2020/12/24 12:29:49;;;;;;;1.20;1.00;;;10.20;98.00;;;;;;4992501;28;20502;-66
2020/12/24 12:32:15;;;;;;;1.20;1.00;;;9.90;98.00;;;;;;4994408;28;20495;-67
2020/12/24 12:34:42;;;;;;;1.20;0.90;;;9.80;98.00;;;;;;4992140;28;20931;-65
2020/12/24 12:37:12;;;;;;;1.20;1.00;;;9.70;98.00;;;;;;4994251;28;20463;-69
2020/12/24 12:39:38;;;;;;;1.20;1.00;;;9.60;98.00;;;;;;4992334;28;20498;-65
2020/12/24 12:42:05;;;;;;;1.20;1.00;;;9.60;98.00;;;;;;4993100;28;20470;-66
2020/12/24 12:44:31;;;;;;;1.20;0.90;;;9.60;98.00;;;;;;4991827;28;20485;-66
2020/12/24 12:46:58;;;;;;;1.20;0.90;;;9.60;98.00;;;;;;4994499;28;20472;-66
2020/12/24 12:49:25;;;;;;;1.20;0.90;;;9.50;98.00;;;;;;4993256;28;20470;-66
2020/12/24 12:51:51;;;;;;;1.20;1.10;;;9.40;98.00;;;;;;4994299;28;20519;-65
2020/12/24 12:54:19;;;;;;;1.20;0.90;;;9.50;98.00;;;;;;4993973;28;20498;-65
2020/12/24 12:56:45;;;;;;;1.20;0.93;;;9.50;98.00;;;;;;4992131;28;20467;-65
2020/12/24 12:59:12;;;;;;;1.20;1.00;;;9.50;98.00;;;;;;4994065;28;20453;-65
2020/12/24 13:01:38;;;;;;;1.20;0.90;;;9.50;98.00;;;;;;4992230;28;20454;-65